sensor_id;sensor_type;location;lat;lon;timestamp;P1;durP1;ratioP1;P2;durP2;ratioP2
51654;SDS011;37732;53.106;7.030;2023-07-20T00:00:50;3.83;;;2.30;;
51654;SDS011;37732;53.106;7.030;2023-07-20T00:03:18;7.53;;;3.03;;
51654;SDS011;37732;53.106;7.030;2023-07-20T00:05:50;3.75;;;2.20;;
51654;SDS011;37732;53.106;7.030;2023-07-20T00:08:17;3.78;;;2.10;;
51654;SDS011;37732;53.106;7.030;2023-07-20T00:10:43;3.70;;;2.20;;
51654;SDS011;37732;53.106;7.030;2023-07-20T00:13:10;3.85;;;2.28;;
51654;SDS011;37732;53.106;7.030;2023-07-20T00:15:37;4.05;;;2.20;;
51654;SDS011;37732;53.106;7.030;2023-07-20T00:18:03;3.53;;;2.40;;
51654;SDS011;37732;53.106;7.030;2023-07-20T00:20:30;3.05;;;2.00;;
51654;SDS011;37732;53.106;7.030;2023-07-20T00:22:57;3.55;;;2.20;;
51654;SDS011;37732;53.106;7.030;2023-07-20T00:25:23;4.53;;;2.50;;
51654;SDS011;37732;53.106;7.030;2023-07-20T00:27:50;6.47;;;2.33;;
51654;SDS011;37732;53.106;7.030;2023-07-20T00:30:16;4.20;;;1.92;;
51654;SDS011;37732;53.106;7.030;2023-07-20T00:32:42;3.80;;;2.70;;
51654;SDS011;37732;53.106;7.030;2023-07-20T00:35:08;5.35;;;2.08;;
51654;SDS011;37732;53.106;7.030;2023-07-20T00:37:34;4.63;;;2.78;;
51654;SDS011;37732;53.106;7.030;2023-07-20T00:40:00;4.72;;;2.25;;
51654;SDS011;37732;53.106;7.030;2023-07-20T00:42:29;2.85;;;1.83;;
51654;SDS011;37732;53.106;7.030;2023-07-20T00:44:55;5.65;;;3.28;;
51654;SDS011;37732;53.106;7.030;2023-07-20T00:47:21;3.90;;;2.67;;
51654;SDS011;37732;53.106;7.030;2023-07-20T00:49:47;6.00;;;2.88;;
51654;SDS011;37732;53.106;7.030;2023-07-20T00:52:13;6.47;;;2.80;;
51654;SDS011;37732;53.106;7.030;2023-07-20T00:54:40;4.35;;;2.03;;
51654;SDS011;37732;53.106;7.030;2023-07-20T00:57:07;4.68;;;2.60;;
51654;SDS011;37732;53.106;7.030;2023-07-20T00:59:33;6.47;;;2.45;;
51654;SDS011;37732;53.106;7.030;2023-07-20T01:02:02;4.15;;;2.83;;
51654;SDS011;37732;53.106;7.030;2023-07-20T01:04:29;4.20;;;3.00;;
51654;SDS011;37732;53.106;7.030;2023-07-20T01:07:00;6.65;;;4.28;;
51654;SDS011;37732;53.106;7.030;2023-07-20T01:09:43;6.18;;;3.25;;
51654;SDS011;37732;53.106;7.030;2023-07-20T01:12:26;4.65;;;2.85;;
51654;SDS011;37732;53.106;7.030;2023-07-20T01:14:56;4.50;;;3.20;;
51654;SDS011;37732;53.106;7.030;2023-07-20T01:17:22;5.65;;;3.58;;
51654;SDS011;37732;53.106;7.030;2023-07-20T01:19:49;6.57;;;3.63;;
51654;SDS011;37732;53.106;7.030;2023-07-20T01:27:20;3.97;;;2.75;;
51654;SDS011;37732;53.106;7.030;2023-07-20T01:32:41;5.60;;;4.50;;
51654;SDS011;37732;53.106;7.030;2023-07-20T01:35:10;5.93;;;3.92;;
51654;SDS011;37732;53.106;7.030;2023-07-20T01:37:40;6.38;;;3.17;;
51654;SDS011;37732;53.106;7.030;2023-07-20T01:40:09;5.60;;;2.47;;
51654;SDS011;37732;53.106;7.030;2023-07-20T01:42:36;7.60;;;5.85;;
51654;SDS011;37732;53.106;7.030;2023-07-20T01:45:02;7.78;;;4.32;;
51654;SDS011;37732;53.106;7.030;2023-07-20T01:47:28;5.63;;;3.20;;
51654;SDS011;37732;53.106;7.030;2023-07-20T01:49:55;8.27;;;6.07;;
51654;SDS011;37732;53.106;7.030;2023-07-20T01:52:21;5.15;;;3.35;;
51654;SDS011;37732;53.106;7.030;2023-07-20T01:54:47;7.95;;;4.68;;
51654;SDS011;37732;53.106;7.030;2023-07-20T01:57:14;5.78;;;3.63;;
51654;SDS011;37732;53.106;7.030;2023-07-20T01:59:40;6.50;;;4.72;;
51654;SDS011;37732;53.106;7.030;2023-07-20T02:02:06;5.32;;;3.42;;
51654;SDS011;37732;53.106;7.030;2023-07-20T02:04:32;7.80;;;6.10;;
51654;SDS011;37732;53.106;7.030;2023-07-20T02:06:58;3.92;;;3.33;;
51654;SDS011;37732;53.106;7.030;2023-07-20T02:09:25;6.75;;;5.03;;
51654;SDS011;37732;53.106;7.030;2023-07-20T02:11:51;5.25;;;3.22;;
51654;SDS011;37732;53.106;7.030;2023-07-20T02:14:17;6.55;;;4.03;;
51654;SDS011;37732;53.106;7.030;2023-07-20T02:16:43;5.28;;;3.15;;
51654;SDS011;37732;53.106;7.030;2023-07-20T02:19:09;6.03;;;4.05;;
51654;SDS011;37732;53.106;7.030;2023-07-20T02:21:36;5.82;;;4.78;;
51654;SDS011;37732;53.106;7.030;2023-07-20T02:24:02;6.15;;;4.35;;
51654;SDS011;37732;53.106;7.030;2023-07-20T02:26:28;4.50;;;2.83;;
51654;SDS011;37732;53.106;7.030;2023-07-20T02:28:54;6.82;;;5.18;;
51654;SDS011;37732;53.106;7.030;2023-07-20T02:31:21;5.30;;;3.70;;
51654;SDS011;37732;53.106;7.030;2023-07-20T02:33:47;5.53;;;3.55;;
51654;SDS011;37732;53.106;7.030;2023-07-20T02:36:12;5.65;;;3.58;;
51654;SDS011;37732;53.106;7.030;2023-07-20T02:38:40;5.60;;;3.60;;
51654;SDS011;37732;53.106;7.030;2023-07-20T02:41:06;6.22;;;4.32;;
51654;SDS011;37732;53.106;7.030;2023-07-20T02:43:32;8.52;;;5.45;;
51654;SDS011;37732;53.106;7.030;2023-07-20T02:45:58;6.47;;;4.97;;
51654;SDS011;37732;53.106;7.030;2023-07-20T02:48:24;7.47;;;5.22;;
51654;SDS011;37732;53.106;7.030;2023-07-20T02:50:51;5.32;;;3.17;;
51654;SDS011;37732;53.106;7.030;2023-07-20T02:53:17;6.38;;;3.42;;
51654;SDS011;37732;53.106;7.030;2023-07-20T02:55:43;6.70;;;5.25;;
51654;SDS011;37732;53.106;7.030;2023-07-20T02:58:09;5.50;;;3.65;;
51654;SDS011;37732;53.106;7.030;2023-07-20T03:00:35;5.57;;;3.80;;
51654;SDS011;37732;53.106;7.030;2023-07-20T03:03:00;7.70;;;5.22;;
51654;SDS011;37732;53.106;7.030;2023-07-20T03:05:27;5.75;;;3.05;;
51654;SDS011;37732;53.106;7.030;2023-07-20T03:07:55;7.55;;;3.83;;
51654;SDS011;37732;53.106;7.030;2023-07-20T03:10:21;6.22;;;4.55;;
51654;SDS011;37732;53.106;7.030;2023-07-20T03:12:46;3.88;;;2.85;;
51654;SDS011;37732;53.106;7.030;2023-07-20T03:15:12;4.80;;;3.00;;
51654;SDS011;37732;53.106;7.030;2023-07-20T03:17:38;7.03;;;3.42;;
51654;SDS011;37732;53.106;7.030;2023-07-20T03:20:05;7.28;;;3.38;;
51654;SDS011;37732;53.106;7.030;2023-07-20T03:22:34;5.13;;;3.28;;
51654;SDS011;37732;53.106;7.030;2023-07-20T03:25:00;7.05;;;3.85;;
51654;SDS011;37732;53.106;7.030;2023-07-20T03:27:25;6.90;;;4.20;;
51654;SDS011;37732;53.106;7.030;2023-07-20T03:29:51;5.63;;;3.88;;
51654;SDS011;37732;53.106;7.030;2023-07-20T03:32:17;7.43;;;3.78;;
51654;SDS011;37732;53.106;7.030;2023-07-20T03:34:42;10.88;;;5.38;;
51654;SDS011;37732;53.106;7.030;2023-07-20T03:37:09;8.15;;;5.05;;
51654;SDS011;37732;53.106;7.030;2023-07-20T03:39:35;7.35;;;4.32;;
51654;SDS011;37732;53.106;7.030;2023-07-20T03:42:01;6.03;;;3.28;;
51654;SDS011;37732;53.106;7.030;2023-07-20T03:44:27;5.53;;;3.78;;
51654;SDS011;37732;53.106;7.030;2023-07-20T03:46:54;5.93;;;3.42;;
51654;SDS011;37732;53.106;7.030;2023-07-20T03:49:20;5.90;;;4.03;;
51654;SDS011;37732;53.106;7.030;2023-07-20T03:51:46;6.68;;;4.13;;
51654;SDS011;37732;53.106;7.030;2023-07-20T03:54:13;5.70;;;3.85;;
51654;SDS011;37732;53.106;7.030;2023-07-20T03:56:39;5.50;;;3.40;;
51654;SDS011;37732;53.106;7.030;2023-07-20T03:59:05;11.32;;;6.90;;
51654;SDS011;37732;53.106;7.030;2023-07-20T04:01:31;7.95;;;5.78;;
51654;SDS011;37732;53.106;7.030;2023-07-20T04:04:04;5.20;;;3.60;;
51654;SDS011;37732;53.106;7.030;2023-07-20T04:06:31;5.68;;;4.07;;
51654;SDS011;37732;53.106;7.030;2023-07-20T04:08:56;6.25;;;3.70;;
51654;SDS011;37732;53.106;7.030;2023-07-20T04:11:22;6.20;;;5.18;;
51654;SDS011;37732;53.106;7.030;2023-07-20T04:13:49;7.80;;;5.30;;
51654;SDS011;37732;53.106;7.030;2023-07-20T04:16:15;6.72;;;3.40;;
51654;SDS011;37732;53.106;7.030;2023-07-20T04:18:41;6.53;;;4.00;;
51654;SDS011;37732;53.106;7.030;2023-07-20T04:21:07;6.25;;;4.07;;
51654;SDS011;37732;53.106;7.030;2023-07-20T04:23:34;4.43;;;3.30;;
51654;SDS011;37732;53.106;7.030;2023-07-20T04:26:01;8.57;;;5.70;;
51654;SDS011;37732;53.106;7.030;2023-07-20T04:28:27;10.10;;;6.43;;
51654;SDS011;37732;53.106;7.030;2023-07-20T04:30:53;7.75;;;5.45;;
51654;SDS011;37732;53.106;7.030;2023-07-20T04:33:19;6.63;;;5.03;;
51654;SDS011;37732;53.106;7.030;2023-07-20T04:35:52;8.65;;;4.72;;
51654;SDS011;37732;53.106;7.030;2023-07-20T04:38:21;8.00;;;4.60;;
51654;SDS011;37732;53.106;7.030;2023-07-20T04:40:48;5.97;;;5.07;;
51654;SDS011;37732;53.106;7.030;2023-07-20T04:43:16;10.02;;;7.20;;
51654;SDS011;37732;53.106;7.030;2023-07-20T04:45:42;7.97;;;5.38;;
51654;SDS011;37732;53.106;7.030;2023-07-20T04:48:10;13.73;;;7.72;;
51654;SDS011;37732;53.106;7.030;2023-07-20T04:50:40;6.85;;;5.45;;
51654;SDS011;37732;53.106;7.030;2023-07-20T04:53:06;8.23;;;4.65;;
51654;SDS011;37732;53.106;7.030;2023-07-20T04:55:35;9.63;;;6.63;;
51654;SDS011;37732;53.106;7.030;2023-07-20T04:58:02;8.48;;;6.95;;
51654;SDS011;37732;53.106;7.030;2023-07-20T05:00:29;8.77;;;6.78;;
51654;SDS011;37732;53.106;7.030;2023-07-20T05:02:55;7.57;;;5.05;;
51654;SDS011;37732;53.106;7.030;2023-07-20T05:05:21;9.23;;;6.70;;
51654;SDS011;37732;53.106;7.030;2023-07-20T05:07:48;9.55;;;6.72;;
51654;SDS011;37732;53.106;7.030;2023-07-20T05:10:13;7.07;;;6.22;;
51654;SDS011;37732;53.106;7.030;2023-07-20T05:12:39;9.15;;;6.45;;
51654;SDS011;37732;53.106;7.030;2023-07-20T05:15:05;11.20;;;7.65;;
51654;SDS011;37732;53.106;7.030;2023-07-20T05:17:31;9.00;;;6.15;;
51654;SDS011;37732;53.106;7.030;2023-07-20T05:19:56;8.15;;;6.20;;
51654;SDS011;37732;53.106;7.030;2023-07-20T05:22:22;9.10;;;6.15;;
51654;SDS011;37732;53.106;7.030;2023-07-20T05:24:49;9.15;;;6.47;;
51654;SDS011;37732;53.106;7.030;2023-07-20T05:27:15;7.97;;;6.15;;
51654;SDS011;37732;53.106;7.030;2023-07-20T05:29:45;6.93;;;5.28;;
51654;SDS011;37732;53.106;7.030;2023-07-20T05:32:10;9.95;;;5.93;;
51654;SDS011;37732;53.106;7.030;2023-07-20T05:34:36;8.65;;;4.70;;
51654;SDS011;37732;53.106;7.030;2023-07-20T05:37:02;7.68;;;4.50;;
51654;SDS011;37732;53.106;7.030;2023-07-20T05:39:28;7.75;;;5.35;;
51654;SDS011;37732;53.106;7.030;2023-07-20T05:41:54;7.30;;;4.55;;
51654;SDS011;37732;53.106;7.030;2023-07-20T05:44:19;6.32;;;4.97;;
51654;SDS011;37732;53.106;7.030;2023-07-20T05:46:45;6.43;;;4.28;;
51654;SDS011;37732;53.106;7.030;2023-07-20T05:49:12;5.90;;;4.20;;
51654;SDS011;37732;53.106;7.030;2023-07-20T05:51:38;5.13;;;3.67;;
51654;SDS011;37732;53.106;7.030;2023-07-20T05:54:04;5.38;;;3.63;;
51654;SDS011;37732;53.106;7.030;2023-07-20T05:56:31;7.70;;;4.50;;
51654;SDS011;37732;53.106;7.030;2023-07-20T05:58:57;5.70;;;3.65;;
51654;SDS011;37732;53.106;7.030;2023-07-20T06:01:23;5.55;;;3.70;;
51654;SDS011;37732;53.106;7.030;2023-07-20T06:03:52;5.55;;;3.60;;
51654;SDS011;37732;53.106;7.030;2023-07-20T06:06:18;6.70;;;3.30;;
51654;SDS011;37732;53.106;7.030;2023-07-20T06:08:44;6.95;;;3.95;;
51654;SDS011;37732;53.106;7.030;2023-07-20T06:11:10;5.18;;;3.50;;
51654;SDS011;37732;53.106;7.030;2023-07-20T06:13:36;7.57;;;3.70;;
51654;SDS011;37732;53.106;7.030;2023-07-20T06:16:02;6.15;;;3.35;;
51654;SDS011;37732;53.106;7.030;2023-07-20T06:18:28;11.15;;;3.10;;
51654;SDS011;37732;53.106;7.030;2023-07-20T06:20:55;4.57;;;3.00;;
51654;SDS011;37732;53.106;7.030;2023-07-20T06:23:21;5.35;;;3.45;;
51654;SDS011;37732;53.106;7.030;2023-07-20T06:25:48;5.20;;;3.28;;
51654;SDS011;37732;53.106;7.030;2023-07-20T06:28:14;6.20;;;3.10;;
51654;SDS011;37732;53.106;7.030;2023-07-20T06:30:41;4.72;;;2.80;;
51654;SDS011;37732;53.106;7.030;2023-07-20T06:33:07;4.72;;;2.80;;
51654;SDS011;37732;53.106;7.030;2023-07-20T06:35:33;6.18;;;2.60;;
51654;SDS011;37732;53.106;7.030;2023-07-20T06:38:00;3.95;;;2.05;;
51654;SDS011;37732;53.106;7.030;2023-07-20T06:40:28;3.08;;;1.90;;
51654;SDS011;37732;53.106;7.030;2023-07-20T06:42:53;4.35;;;1.80;;
51654;SDS011;37732;53.106;7.030;2023-07-20T06:45:19;4.97;;;2.45;;
51654;SDS011;37732;53.106;7.030;2023-07-20T06:47:45;3.33;;;1.90;;
51654;SDS011;37732;53.106;7.030;2023-07-20T06:50:11;4.47;;;2.10;;
51654;SDS011;37732;53.106;7.030;2023-07-20T06:52:39;2.72;;;1.90;;
51654;SDS011;37732;53.106;7.030;2023-07-20T06:55:06;4.38;;;1.92;;
51654;SDS011;37732;53.106;7.030;2023-07-20T06:57:32;3.67;;;1.65;;
51654;SDS011;37732;53.106;7.030;2023-07-20T06:59:58;2.45;;;1.50;;
51654;SDS011;37732;53.106;7.030;2023-07-20T07:02:27;2.67;;;1.63;;
51654;SDS011;37732;53.106;7.030;2023-07-20T07:04:52;4.25;;;1.73;;
51654;SDS011;37732;53.106;7.030;2023-07-20T07:07:18;4.90;;;1.90;;
51654;SDS011;37732;53.106;7.030;2023-07-20T07:09:44;5.28;;;1.60;;
51654;SDS011;37732;53.106;7.030;2023-07-20T07:12:10;3.45;;;1.60;;
51654;SDS011;37732;53.106;7.030;2023-07-20T07:14:36;3.78;;;1.70;;
51654;SDS011;37732;53.106;7.030;2023-07-20T07:17:02;3.47;;;1.92;;
51654;SDS011;37732;53.106;7.030;2023-07-20T07:19:29;4.20;;;1.70;;
51654;SDS011;37732;53.106;7.030;2023-07-20T07:21:56;4.20;;;1.67;;
51654;SDS011;37732;53.106;7.030;2023-07-20T07:24:22;6.53;;;1.90;;
51654;SDS011;37732;53.106;7.030;2023-07-20T07:26:49;3.13;;;1.80;;
51654;SDS011;37732;53.106;7.030;2023-07-20T07:29:15;6.00;;;1.77;;
51654;SDS011;37732;53.106;7.030;2023-07-20T07:31:43;4.05;;;1.75;;
51654;SDS011;37732;53.106;7.030;2023-07-20T07:34:09;5.15;;;1.40;;
51654;SDS011;37732;53.106;7.030;2023-07-20T07:36:35;5.72;;;1.80;;
51654;SDS011;37732;53.106;7.030;2023-07-20T07:39:01;5.40;;;2.05;;
51654;SDS011;37732;53.106;7.030;2023-07-20T07:41:28;4.47;;;2.05;;
51654;SDS011;37732;53.106;7.030;2023-07-20T07:43:55;6.25;;;2.10;;
51654;SDS011;37732;53.106;7.030;2023-07-20T07:46:22;5.35;;;2.35;;
51654;SDS011;37732;53.106;7.030;2023-07-20T07:48:48;4.47;;;2.38;;
51654;SDS011;37732;53.106;7.030;2023-07-20T07:51:14;3.42;;;1.90;;
51654;SDS011;37732;53.106;7.030;2023-07-20T07:53:41;4.18;;;1.80;;
51654;SDS011;37732;53.106;7.030;2023-07-20T07:56:07;3.42;;;1.90;;
51654;SDS011;37732;53.106;7.030;2023-07-20T07:58:34;5.60;;;2.05;;
51654;SDS011;37732;53.106;7.030;2023-07-20T08:01:00;4.25;;;2.00;;
51654;SDS011;37732;53.106;7.030;2023-07-20T08:03:26;4.97;;;2.30;;
51654;SDS011;37732;53.106;7.030;2023-07-20T08:05:55;4.97;;;2.10;;
51654;SDS011;37732;53.106;7.030;2023-07-20T08:08:22;5.32;;;2.47;;
51654;SDS011;37732;53.106;7.030;2023-07-20T08:10:48;3.95;;;2.40;;
51654;SDS011;37732;53.106;7.030;2023-07-20T08:13:14;6.22;;;2.20;;
51654;SDS011;37732;53.106;7.030;2023-07-20T08:15:45;4.13;;;2.25;;
51654;SDS011;37732;53.106;7.030;2023-07-20T08:18:14;4.03;;;2.10;;
51654;SDS011;37732;53.106;7.030;2023-07-20T08:20:43;6.32;;;2.30;;
51654;SDS011;37732;53.106;7.030;2023-07-20T08:23:09;6.18;;;2.55;;
51654;SDS011;37732;53.106;7.030;2023-07-20T08:25:38;6.43;;;2.38;;
51654;SDS011;37732;53.106;7.030;2023-07-20T08:28:13;5.32;;;2.60;;
51654;SDS011;37732;53.106;7.030;2023-07-20T08:30:43;3.08;;;2.00;;
51654;SDS011;37732;53.106;7.030;2023-07-20T08:33:12;8.40;;;3.05;;
51654;SDS011;37732;53.106;7.030;2023-07-20T08:35:39;6.55;;;2.72;;
51654;SDS011;37732;53.106;7.030;2023-07-20T08:38:05;6.20;;;2.65;;
51654;SDS011;37732;53.106;7.030;2023-07-20T08:40:32;4.68;;;2.60;;
51654;SDS011;37732;53.106;7.030;2023-07-20T08:42:59;5.10;;;2.15;;
51654;SDS011;37732;53.106;7.030;2023-07-20T08:45:26;6.88;;;2.10;;
51654;SDS011;37732;53.106;7.030;2023-07-20T08:47:58;4.38;;;2.13;;
51654;SDS011;37732;53.106;7.030;2023-07-20T08:50:25;5.07;;;2.20;;
51654;SDS011;37732;53.106;7.030;2023-07-20T08:52:52;4.90;;;2.30;;
51654;SDS011;37732;53.106;7.030;2023-07-20T08:55:19;6.40;;;2.13;;
51654;SDS011;37732;53.106;7.030;2023-07-20T08:57:49;8.90;;;2.35;;
51654;SDS011;37732;53.106;7.030;2023-07-20T09:00:19;9.63;;;2.42;;
51654;SDS011;37732;53.106;7.030;2023-07-20T09:02:49;3.90;;;2.03;;
51654;SDS011;37732;53.106;7.030;2023-07-20T09:05:16;7.45;;;2.75;;
51654;SDS011;37732;53.106;7.030;2023-07-20T09:07:43;4.20;;;1.60;;
51654;SDS011;37732;53.106;7.030;2023-07-20T09:10:09;7.72;;;2.38;;
51654;SDS011;37732;53.106;7.030;2023-07-20T09:12:39;3.92;;;1.80;;
51654;SDS011;37732;53.106;7.030;2023-07-20T09:15:06;6.50;;;2.17;;
51654;SDS011;37732;53.106;7.030;2023-07-20T09:17:33;5.95;;;2.20;;
51654;SDS011;37732;53.106;7.030;2023-07-20T09:20:03;5.90;;;2.35;;
51654;SDS011;37732;53.106;7.030;2023-07-20T09:22:35;4.65;;;1.83;;
51654;SDS011;37732;53.106;7.030;2023-07-20T09:25:06;5.18;;;2.45;;
51654;SDS011;37732;53.106;7.030;2023-07-20T09:27:40;5.10;;;1.60;;
51654;SDS011;37732;53.106;7.030;2023-07-20T09:30:08;5.15;;;2.03;;
51654;SDS011;37732;53.106;7.030;2023-07-20T09:35:16;4.03;;;1.52;;
51654;SDS011;37732;53.106;7.030;2023-07-20T09:37:57;4.65;;;1.42;;
51654;SDS011;37732;53.106;7.030;2023-07-20T09:40:25;6.85;;;1.88;;
51654;SDS011;37732;53.106;7.030;2023-07-20T09:42:52;3.03;;;1.45;;
51654;SDS011;37732;53.106;7.030;2023-07-20T09:45:39;4.72;;;2.00;;
51654;SDS011;37732;53.106;7.030;2023-07-20T09:48:06;4.78;;;1.80;;
51654;SDS011;37732;53.106;7.030;2023-07-20T09:50:38;6.38;;;2.22;;
51654;SDS011;37732;53.106;7.030;2023-07-20T09:53:11;5.65;;;1.90;;
51654;SDS011;37732;53.106;7.030;2023-07-20T09:55:41;5.07;;;1.50;;
51654;SDS011;37732;53.106;7.030;2023-07-20T09:58:09;3.70;;;1.58;;
51654;SDS011;37732;53.106;7.030;2023-07-20T10:00:38;6.28;;;1.85;;
51654;SDS011;37732;53.106;7.030;2023-07-20T10:03:06;3.22;;;1.45;;
51654;SDS011;37732;53.106;7.030;2023-07-20T10:05:34;2.92;;;1.50;;
51654;SDS011;37732;53.106;7.030;2023-07-20T10:08:05;4.70;;;1.58;;
51654;SDS011;37732;53.106;7.030;2023-07-20T10:10:38;3.15;;;1.50;;
51654;SDS011;37732;53.106;7.030;2023-07-20T10:13:06;4.20;;;1.33;;
51654;SDS011;37732;53.106;7.030;2023-07-20T10:18:30;3.45;;;1.50;;
51654;SDS011;37732;53.106;7.030;2023-07-20T10:21:14;4.30;;;1.77;;
51654;SDS011;37732;53.106;7.030;2023-07-20T10:23:42;7.57;;;1.58;;
51654;SDS011;37732;53.106;7.030;2023-07-20T10:26:09;4.60;;;1.35;;
51654;SDS011;37732;53.106;7.030;2023-07-20T10:28:36;4.43;;;1.55;;
51654;SDS011;37732;53.106;7.030;2023-07-20T10:31:03;3.67;;;1.50;;
51654;SDS011;37732;53.106;7.030;2023-07-20T10:33:29;4.40;;;2.22;;
51654;SDS011;37732;53.106;7.030;2023-07-20T10:35:56;2.85;;;1.45;;
51654;SDS011;37732;53.106;7.030;2023-07-20T10:38:39;3.55;;;1.45;;
51654;SDS011;37732;53.106;7.030;2023-07-20T10:41:18;2.70;;;1.42;;
51654;SDS011;37732;53.106;7.030;2023-07-20T10:43:49;2.28;;;1.50;;
51654;SDS011;37732;53.106;7.030;2023-07-20T10:47:01;3.25;;;1.20;;
51654;SDS011;37732;53.106;7.030;2023-07-20T10:49:05;4.00;;;1.55;;
51654;SDS011;37732;53.106;7.030;2023-07-20T10:54:54;2.63;;;1.52;;
51654;SDS011;37732;53.106;7.030;2023-07-20T10:57:21;4.55;;;1.70;;
51654;SDS011;37732;53.106;7.030;2023-07-20T10:59:49;1.80;;;1.30;;
51654;SDS011;37732;53.106;7.030;2023-07-20T11:02:17;3.20;;;1.63;;
51654;SDS011;37732;53.106;7.030;2023-07-20T11:04:45;3.88;;;1.70;;
51654;SDS011;37732;53.106;7.030;2023-07-20T11:07:16;3.65;;;1.38;;
51654;SDS011;37732;53.106;7.030;2023-07-20T11:09:43;3.08;;;1.50;;
51654;SDS011;37732;53.106;7.030;2023-07-20T11:12:10;2.60;;;1.92;;
51654;SDS011;37732;53.106;7.030;2023-07-20T11:14:41;4.25;;;1.55;;
51654;SDS011;37732;53.106;7.030;2023-07-20T11:17:11;2.13;;;1.30;;
51654;SDS011;37732;53.106;7.030;2023-07-20T11:19:43;5.07;;;1.73;;
51654;SDS011;37732;53.106;7.030;2023-07-20T11:22:08;2.17;;;1.48;;
51654;SDS011;37732;53.106;7.030;2023-07-20T11:24:38;2.67;;;1.40;;
51654;SDS011;37732;53.106;7.030;2023-07-20T11:27:05;2.25;;;1.27;;
51654;SDS011;37732;53.106;7.030;2023-07-20T11:29:31;2.83;;;1.25;;
51654;SDS011;37732;53.106;7.030;2023-07-20T11:31:57;3.65;;;1.58;;
51654;SDS011;37732;53.106;7.030;2023-07-20T11:34:25;2.45;;;1.33;;
51654;SDS011;37732;53.106;7.030;2023-07-20T11:36:52;2.03;;;1.10;;
51654;SDS011;37732;53.106;7.030;2023-07-20T11:39:19;2.78;;;1.20;;
51654;SDS011;37732;53.106;7.030;2023-07-20T11:41:48;2.90;;;1.60;;
51654;SDS011;37732;53.106;7.030;2023-07-20T11:44:15;3.03;;;1.52;;
51654;SDS011;37732;53.106;7.030;2023-07-20T11:46:42;7.78;;;2.10;;
51654;SDS011;37732;53.106;7.030;2023-07-20T11:49:09;3.42;;;1.50;;
51654;SDS011;37732;53.106;7.030;2023-07-20T11:51:35;3.65;;;1.40;;
51654;SDS011;37732;53.106;7.030;2023-07-20T11:54:03;2.72;;;1.30;;
51654;SDS011;37732;53.106;7.030;2023-07-20T11:56:30;2.33;;;1.20;;
51654;SDS011;37732;53.106;7.030;2023-07-20T11:58:57;2.22;;;1.40;;
51654;SDS011;37732;53.106;7.030;2023-07-20T12:01:26;2.80;;;1.50;;
51654;SDS011;37732;53.106;7.030;2023-07-20T12:04:00;2.45;;;1.30;;
51654;SDS011;37732;53.106;7.030;2023-07-20T12:06:28;4.22;;;1.90;;
51654;SDS011;37732;53.106;7.030;2023-07-20T12:08:55;4.65;;;1.30;;
51654;SDS011;37732;53.106;7.030;2023-07-20T12:11:38;3.45;;;1.30;;
51654;SDS011;37732;53.106;7.030;2023-07-20T12:14:04;3.22;;;2.10;;
51654;SDS011;37732;53.106;7.030;2023-07-20T12:16:32;2.72;;;1.17;;
51654;SDS011;37732;53.106;7.030;2023-07-20T12:21:30;2.72;;;1.38;;
51654;SDS011;37732;53.106;7.030;2023-07-20T12:23:56;3.08;;;1.35;;
51654;SDS011;37732;53.106;7.030;2023-07-20T12:26:23;2.15;;;1.45;;
51654;SDS011;37732;53.106;7.030;2023-07-20T12:28:54;2.38;;;1.23;;
51654;SDS011;37732;53.106;7.030;2023-07-20T12:31:20;4.13;;;1.40;;
51654;SDS011;37732;53.106;7.030;2023-07-20T12:33:48;2.85;;;1.20;;
51654;SDS011;37732;53.106;7.030;2023-07-20T12:36:14;1.85;;;1.17;;
51654;SDS011;37732;53.106;7.030;2023-07-20T12:38:41;3.10;;;1.80;;
51654;SDS011;37732;53.106;7.030;2023-07-20T12:41:09;3.60;;;1.40;;
51654;SDS011;37732;53.106;7.030;2023-07-20T12:43:37;1.92;;;1.30;;
51654;SDS011;37732;53.106;7.030;2023-07-20T12:46:03;2.47;;;1.30;;
51654;SDS011;37732;53.106;7.030;2023-07-20T12:48:30;1.65;;;1.30;;
51654;SDS011;37732;53.106;7.030;2023-07-20T12:50:56;1.48;;;1.20;;
51654;SDS011;37732;53.106;7.030;2023-07-20T12:53:24;2.85;;;1.10;;
51654;SDS011;37732;53.106;7.030;2023-07-20T12:55:50;4.53;;;1.60;;
51654;SDS011;37732;53.106;7.030;2023-07-20T12:58:16;3.40;;;1.42;;
51654;SDS011;37732;53.106;7.030;2023-07-20T13:00:43;2.17;;;1.33;;
51654;SDS011;37732;53.106;7.030;2023-07-20T13:03:09;3.08;;;1.20;;
51654;SDS011;37732;53.106;7.030;2023-07-20T13:05:36;2.38;;;1.30;;
51654;SDS011;37732;53.106;7.030;2023-07-20T13:08:02;1.38;;;1.10;;
51654;SDS011;37732;53.106;7.030;2023-07-20T13:10:31;6.70;;;1.92;;
51654;SDS011;37732;53.106;7.030;2023-07-20T13:12:57;4.53;;;2.03;;
51654;SDS011;37732;53.106;7.030;2023-07-20T13:15:24;3.55;;;1.40;;
51654;SDS011;37732;53.106;7.030;2023-07-20T13:17:57;3.70;;;1.40;;
51654;SDS011;37732;53.106;7.030;2023-07-20T13:20:24;5.32;;;1.70;;
51654;SDS011;37732;53.106;7.030;2023-07-20T13:22:51;9.77;;;3.30;;
51654;SDS011;37732;53.106;7.030;2023-07-20T13:25:18;10.77;;;3.42;;
51654;SDS011;37732;53.106;7.030;2023-07-20T13:27:44;7.65;;;2.40;;
51654;SDS011;37732;53.106;7.030;2023-07-20T13:30:11;5.70;;;2.25;;
51654;SDS011;37732;53.106;7.030;2023-07-20T13:32:42;6.82;;;1.65;;
51654;SDS011;37732;53.106;7.030;2023-07-20T13:35:09;3.90;;;1.77;;
51654;SDS011;37732;53.106;7.030;2023-07-20T13:37:39;4.57;;;1.92;;
51654;SDS011;37732;53.106;7.030;2023-07-20T13:40:05;6.70;;;1.83;;
51654;SDS011;37732;53.106;7.030;2023-07-20T13:42:39;2.85;;;1.60;;
51654;SDS011;37732;53.106;7.030;2023-07-20T13:45:05;3.63;;;1.65;;
51654;SDS011;37732;53.106;7.030;2023-07-20T13:47:32;4.32;;;1.70;;
51654;SDS011;37732;53.106;7.030;2023-07-20T13:49:58;4.15;;;1.95;;
51654;SDS011;37732;53.106;7.030;2023-07-20T13:52:24;3.08;;;1.50;;
51654;SDS011;37732;53.106;7.030;2023-07-20T13:54:51;2.15;;;1.60;;
51654;SDS011;37732;53.106;7.030;2023-07-20T13:57:16;3.00;;;1.77;;
51654;SDS011;37732;53.106;7.030;2023-07-20T13:59:42;3.42;;;1.80;;
51654;SDS011;37732;53.106;7.030;2023-07-20T14:02:08;2.90;;;1.30;;
51654;SDS011;37732;53.106;7.030;2023-07-20T14:04:35;3.70;;;1.65;;
51654;SDS011;37732;53.106;7.030;2023-07-20T14:07:02;3.20;;;1.70;;
51654;SDS011;37732;53.106;7.030;2023-07-20T14:09:27;2.95;;;1.38;;
51654;SDS011;37732;53.106;7.030;2023-07-20T14:11:54;2.65;;;1.40;;
51654;SDS011;37732;53.106;7.030;2023-07-20T14:14:19;2.00;;;1.17;;
51654;SDS011;37732;53.106;7.030;2023-07-20T14:16:45;2.47;;;1.60;;
51654;SDS011;37732;53.106;7.030;2023-07-20T14:19:11;2.47;;;1.10;;
51654;SDS011;37732;53.106;7.030;2023-07-20T14:21:37;4.50;;;1.58;;
51654;SDS011;37732;53.106;7.030;2023-07-20T14:24:04;2.00;;;1.20;;
51654;SDS011;37732;53.106;7.030;2023-07-20T14:26:30;2.67;;;1.73;;
51654;SDS011;37732;53.106;7.030;2023-07-20T14:28:56;3.28;;;1.25;;
51654;SDS011;37732;53.106;7.030;2023-07-20T14:31:21;3.05;;;1.33;;
51654;SDS011;37732;53.106;7.030;2023-07-20T14:33:48;4.00;;;1.33;;
51654;SDS011;37732;53.106;7.030;2023-07-20T14:36:13;1.38;;;1.10;;
51654;SDS011;37732;53.106;7.030;2023-07-20T14:38:40;4.13;;;1.38;;
51654;SDS011;37732;53.106;7.030;2023-07-20T14:41:06;3.17;;;1.30;;
51654;SDS011;37732;53.106;7.030;2023-07-20T14:43:32;3.72;;;1.45;;
51654;SDS011;37732;53.106;7.030;2023-07-20T14:45:57;3.00;;;1.30;;
51654;SDS011;37732;53.106;7.030;2023-07-20T14:48:24;3.20;;;1.45;;
51654;SDS011;37732;53.106;7.030;2023-07-20T14:50:49;1.83;;;1.40;;
51654;SDS011;37732;53.106;7.030;2023-07-20T14:53:15;3.90;;;1.60;;
51654;SDS011;37732;53.106;7.030;2023-07-20T14:55:42;1.92;;;1.20;;
51654;SDS011;37732;53.106;7.030;2023-07-20T14:58:09;3.00;;;1.38;;
51654;SDS011;37732;53.106;7.030;2023-07-20T15:00:36;2.50;;;1.30;;
51654;SDS011;37732;53.106;7.030;2023-07-20T15:03:02;2.72;;;1.13;;
51654;SDS011;37732;53.106;7.030;2023-07-20T15:05:30;3.22;;;1.33;;
51654;SDS011;37732;53.106;7.030;2023-07-20T15:07:56;2.13;;;1.50;;